sensor_id;sensor_type;location;lat;lon;timestamp;temperature;humidity
47252;DHT22;32991;51.374;11.586;2022-09-16T00:00:32;11.60;99.90
47252;DHT22;32991;51.374;11.586;2022-09-16T00:03:00;11.50;99.90
47252;DHT22;32991;51.374;11.586;2022-09-16T00:05:27;11.50;99.90
47252;DHT22;32991;51.374;11.586;2022-09-16T00:07:54;11.50;99.90
47252;DHT22;32991;51.374;11.586;2022-09-16T00:10:22;11.40;99.90
47252;DHT22;32991;51.374;11.586;2022-09-16T00:12:49;11.30;99.90
47252;DHT22;32991;51.374;11.586;2022-09-16T00:15:16;11.30;99.90
47252;DHT22;32991;51.374;11.586;2022-09-16T00:17:43;11.20;99.90
47252;DHT22;32991;51.374;11.586;2022-09-16T00:20:09;11.20;99.90
47252;DHT22;32991;51.374;11.586;2022-09-16T00:22:36;11.10;99.90
47252;DHT22;32991;51.374;11.586;2022-09-16T00:25:03;11.10;99.90
47252;DHT22;32991;51.374;11.586;2022-09-16T00:27:30;11.10;99.90
47252;DHT22;32991;51.374;11.586;2022-09-16T00:29:57;11.10;99.90
47252;DHT22;32991;51.374;11.586;2022-09-16T00:32:23;11.10;99.90
47252;DHT22;32991;51.374;11.586;2022-09-16T00:34:50;11.10;99.90
47252;DHT22;32991;51.374;11.586;2022-09-16T00:37:17;11.00;99.90
47252;DHT22;32991;51.374;11.586;2022-09-16T00:39:47;11.10;99.90
47252;DHT22;32991;51.374;11.586;2022-09-16T00:42:16;11.10;99.90
47252;DHT22;32991;51.374;11.586;2022-09-16T00:44:58;11.10;99.90
47252;DHT22;32991;51.374;11.586;2022-09-16T00:47:36;11.10;99.90
47252;DHT22;32991;51.374;11.586;2022-09-16T00:50:17;11.00;99.90
47252;DHT22;32991;51.374;11.586;2022-09-16T00:52:45;11.00;99.90
47252;DHT22;32991;51.374;11.586;2022-09-16T00:55:19;11.00;99.90
47252;DHT22;32991;51.374;11.586;2022-09-16T00:57:47;11.10;99.90
47252;DHT22;32991;51.374;11.586;2022-09-16T01:00:14;11.00;99.90
47252;DHT22;32991;51.374;11.586;2022-09-16T01:02:42;11.00;99.90
47252;DHT22;32991;51.374;11.586;2022-09-16T01:05:15;11.10;99.90
47252;DHT22;32991;51.374;11.586;2022-09-16T01:07:50;11.00;99.90
47252;DHT22;32991;51.374;11.586;2022-09-16T01:10:19;11.00;99.90
47252;DHT22;32991;51.374;11.586;2022-09-16T01:13:02;11.00;99.90
47252;DHT22;32991;51.374;11.586;2022-09-16T01:18:20;11.00;99.90
47252;DHT22;32991;51.374;11.586;2022-09-16T01:21:02;11.00;99.90
47252;DHT22;32991;51.374;11.586;2022-09-16T01:26:43;11.00;99.90
47252;DHT22;32991;51.374;11.586;2022-09-16T01:32:29;11.10;99.90
47252;DHT22;32991;51.374;11.586;2022-09-16T01:44:02;11.20;99.90
47252;DHT22;32991;51.374;11.586;2022-09-16T01:46:45;11.30;99.90
47252;DHT22;32991;51.374;11.586;2022-09-16T01:52:19;11.30;99.90
47252;DHT22;32991;51.374;11.586;2022-09-16T01:54:52;11.30;99.90
47252;DHT22;32991;51.374;11.586;2022-09-16T01:57:37;11.30;99.90
47252;DHT22;32991;51.374;11.586;2022-09-16T02:00:08;11.30;99.90
47252;DHT22;32991;51.374;11.586;2022-09-16T02:02:50;11.20;99.90
47252;DHT22;32991;51.374;11.586;2022-09-16T02:05:24;11.20;99.90
47252;DHT22;32991;51.374;11.586;2022-09-16T02:07:59;11.20;99.90
47252;DHT22;32991;51.374;11.586;2022-09-16T02:10:38;11.10;99.90
47252;DHT22;32991;51.374;11.586;2022-09-16T02:13:25;11.10;99.90
47252;DHT22;32991;51.374;11.586;2022-09-16T02:15:55;11.00;99.90
47252;DHT22;32991;51.374;11.586;2022-09-16T02:18:28;11.00;99.90
47252;DHT22;32991;51.374;11.586;2022-09-16T02:20:56;11.00;99.90
47252;DHT22;32991;51.374;11.586;2022-09-16T02:23:29;10.90;99.90
47252;DHT22;32991;51.374;11.586;2022-09-16T02:26:00;10.90;99.90
47252;DHT22;32991;51.374;11.586;2022-09-16T02:28:37;10.90;99.90
47252;DHT22;32991;51.374;11.586;2022-09-16T02:31:06;10.80;99.90
47252;DHT22;32991;51.374;11.586;2022-09-16T02:33:59;10.80;99.90
47252;DHT22;32991;51.374;11.586;2022-09-16T02:36:25;10.80;99.90
47252;DHT22;32991;51.374;11.586;2022-09-16T02:39:01;10.70;99.90
47252;DHT22;32991;51.374;11.586;2022-09-16T02:41:29;10.80;99.90
47252;DHT22;32991;51.374;11.586;2022-09-16T02:43:56;10.70;99.90
47252;DHT22;32991;51.374;11.586;2022-09-16T02:49:12;10.70;99.90
47252;DHT22;32991;51.374;11.586;2022-09-16T02:52:07;10.70;99.90
47252;DHT22;32991;51.374;11.586;2022-09-16T02:57:32;10.70;99.90
47252;DHT22;32991;51.374;11.586;2022-09-16T02:59:59;10.60;99.90
47252;DHT22;32991;51.374;11.586;2022-09-16T03:02:25;10.60;99.90
47252;DHT22;32991;51.374;11.586;2022-09-16T03:04:53;10.60;99.90
47252;DHT22;32991;51.374;11.586;2022-09-16T03:07:20;10.60;99.90
47252;DHT22;32991;51.374;11.586;2022-09-16T03:09:48;10.60;99.90
47252;DHT22;32991;51.374;11.586;2022-09-16T03:24:11;10.60;99.90
47252;DHT22;32991;51.374;11.586;2022-09-16T03:26:53;10.60;99.90
47252;DHT22;32991;51.374;11.586;2022-09-16T03:29:24;10.50;99.90
47252;DHT22;32991;51.374;11.586;2022-09-16T03:34:50;10.50;99.90
47252;DHT22;32991;51.374;11.586;2022-09-16T03:37:19;10.50;99.90
47252;DHT22;32991;51.374;11.586;2022-09-16T03:39:49;10.50;99.90
47252;DHT22;32991;51.374;11.586;2022-09-16T03:42:19;10.50;99.90
47252;DHT22;32991;51.374;11.586;2022-09-16T03:44:46;10.50;99.90
47252;DHT22;32991;51.374;11.586;2022-09-16T03:47:13;10.50;99.90
47252;DHT22;32991;51.374;11.586;2022-09-16T03:49:40;10.50;99.90
47252;DHT22;32991;51.374;11.586;2022-09-16T03:52:07;10.40;99.90
47252;DHT22;32991;51.374;11.586;2022-09-16T03:54:35;10.50;99.90
47252;DHT22;32991;51.374;11.586;2022-09-16T03:57:03;10.40;99.90
47252;DHT22;32991;51.374;11.586;2022-09-16T03:59:30;10.40;99.90
47252;DHT22;32991;51.374;11.586;2022-09-16T04:01:57;10.40;99.90
47252;DHT22;32991;51.374;11.586;2022-09-16T04:04:24;10.30;99.90
47252;DHT22;32991;51.374;11.586;2022-09-16T04:06:50;10.30;99.90
47252;DHT22;32991;51.374;11.586;2022-09-16T04:09:17;10.30;99.90
47252;DHT22;32991;51.374;11.586;2022-09-16T04:11:44;10.30;99.90
47252;DHT22;32991;51.374;11.586;2022-09-16T04:14:11;10.30;99.90
47252;DHT22;32991;51.374;11.586;2022-09-16T04:16:37;10.30;99.90
47252;DHT22;32991;51.374;11.586;2022-09-16T04:19:11;10.40;99.90
47252;DHT22;32991;51.374;11.586;2022-09-16T04:21:40;10.40;99.90
47252;DHT22;32991;51.374;11.586;2022-09-16T04:24:07;10.40;99.90
47252;DHT22;32991;51.374;11.586;2022-09-16T04:26:39;10.40;99.90
47252;DHT22;32991;51.374;11.586;2022-09-16T04:29:06;10.40;99.90
47252;DHT22;32991;51.374;11.586;2022-09-16T04:31:33;10.30;99.90
47252;DHT22;32991;51.374;11.586;2022-09-16T04:34:03;10.30;99.90
47252;DHT22;32991;51.374;11.586;2022-09-16T04:36:30;10.30;99.90
47252;DHT22;32991;51.374;11.586;2022-09-16T04:38:58;10.40;99.90
47252;DHT22;32991;51.374;11.586;2022-09-16T04:41:26;10.40;99.90
47252;DHT22;32991;51.374;11.586;2022-09-16T04:43:55;10.30;99.90
47252;DHT22;32991;51.374;11.586;2022-09-16T04:46:23;10.30;99.90
47252;DHT22;32991;51.374;11.586;2022-09-16T04:48:52;10.30;99.90
47252;DHT22;32991;51.374;11.586;2022-09-16T04:51:20;10.30;99.90
47252;DHT22;32991;51.374;11.586;2022-09-16T04:53:48;10.30;99.90
47252;DHT22;32991;51.374;11.586;2022-09-16T04:56:18;10.30;99.90
47252;DHT22;32991;51.374;11.586;2022-09-16T04:58:47;10.30;99.90
47252;DHT22;32991;51.374;11.586;2022-09-16T05:01:17;10.30;99.90
47252;DHT22;32991;51.374;11.586;2022-09-16T05:03:48;10.30;99.90
47252;DHT22;32991;51.374;11.586;2022-09-16T05:06:18;10.30;99.90
47252;DHT22;32991;51.374;11.586;2022-09-16T05:08:47;10.40;99.90
47252;DHT22;32991;51.374;11.586;2022-09-16T05:11:17;10.40;99.90
47252;DHT22;32991;51.374;11.586;2022-09-16T05:13:45;10.40;99.90
47252;DHT22;32991;51.374;11.586;2022-09-16T05:16:13;10.50;99.90
47252;DHT22;32991;51.374;11.586;2022-09-16T05:18:42;10.50;99.90
47252;DHT22;32991;51.374;11.586;2022-09-16T05:21:13;10.60;99.90
47252;DHT22;32991;51.374;11.586;2022-09-16T05:23:41;10.60;99.90
47252;DHT22;32991;51.374;11.586;2022-09-16T05:26:21;10.70;99.90
47252;DHT22;32991;51.374;11.586;2022-09-16T05:28:48;10.90;99.90
47252;DHT22;32991;51.374;11.586;2022-09-16T05:31:27;11.10;99.90
47252;DHT22;32991;51.374;11.586;2022-09-16T05:34:00;11.40;99.90
47252;DHT22;32991;51.374;11.586;2022-09-16T05:36:29;11.70;99.90
47252;DHT22;32991;51.374;11.586;2022-09-16T05:38:56;11.90;99.90
47252;DHT22;32991;51.374;11.586;2022-09-16T05:41:44;12.00;99.90
47252;DHT22;32991;51.374;11.586;2022-09-16T05:44:10;12.00;99.90
47252;DHT22;32991;51.374;11.586;2022-09-16T05:46:37;12.00;99.90
47252;DHT22;32991;51.374;11.586;2022-09-16T05:49:07;12.00;99.90
47252;DHT22;32991;51.374;11.586;2022-09-16T05:51:36;12.00;99.90
47252;DHT22;32991;51.374;11.586;2022-09-16T05:54:03;12.10;99.90
47252;DHT22;32991;51.374;11.586;2022-09-16T05:56:30;12.50;99.90
47252;DHT22;32991;51.374;11.586;2022-09-16T05:58:58;12.80;99.90
47252;DHT22;32991;51.374;11.586;2022-09-16T06:01:30;12.90;99.90
47252;DHT22;32991;51.374;11.586;2022-09-16T06:04:00;12.80;99.90
47252;DHT22;32991;51.374;11.586;2022-09-16T06:06:32;12.70;99.90
47252;DHT22;32991;51.374;11.586;2022-09-16T06:09:14;12.50;99.90
47252;DHT22;32991;51.374;11.586;2022-09-16T06:11:44;12.40;99.90
47252;DHT22;32991;51.374;11.586;2022-09-16T06:14:12;12.20;99.90
47252;DHT22;32991;51.374;11.586;2022-09-16T06:16:40;12.10;99.90
47252;DHT22;32991;51.374;11.586;2022-09-16T06:19:10;12.10;99.90
47252;DHT22;32991;51.374;11.586;2022-09-16T06:21:39;12.50;99.90
47252;DHT22;32991;51.374;11.586;2022-09-16T06:24:06;13.30;99.90
47252;DHT22;32991;51.374;11.586;2022-09-16T06:26:39;14.10;99.90
47252;DHT22;32991;51.374;11.586;2022-09-16T06:29:07;14.40;99.90
47252;DHT22;32991;51.374;11.586;2022-09-16T06:31:35;14.40;99.90
47252;DHT22;32991;51.374;11.586;2022-09-16T06:34:04;14.30;99.90
47252;DHT22;32991;51.374;11.586;2022-09-16T06:36:36;14.20;99.90
47252;DHT22;32991;51.374;11.586;2022-09-16T06:39:10;14.10;99.90
47252;DHT22;32991;51.374;11.586;2022-09-16T06:41:38;13.90;99.90
47252;DHT22;32991;51.374;11.586;2022-09-16T06:44:05;13.80;99.90
47252;DHT22;32991;51.374;11.586;2022-09-16T06:46:31;14.30;99.90
47252;DHT22;32991;51.374;11.586;2022-09-16T06:48:58;14.60;99.90
47252;DHT22;32991;51.374;11.586;2022-09-16T06:51:32;14.70;99.90
47252;DHT22;32991;51.374;11.586;2022-09-16T06:54:04;14.80;99.90
47252;DHT22;32991;51.374;11.586;2022-09-16T06:56:31;15.10;99.90
47252;DHT22;32991;51.374;11.586;2022-09-16T06:59:01;15.80;99.90
47252;DHT22;32991;51.374;11.586;2022-09-16T07:01:30;16.50;99.90
47252;DHT22;32991;51.374;11.586;2022-09-16T07:03:57;17.10;99.90
47252;DHT22;32991;51.374;11.586;2022-09-16T07:06:28;17.80;99.90
47252;DHT22;32991;51.374;11.586;2022-09-16T07:09:15;18.30;99.90
47252;DHT22;32991;51.374;11.586;2022-09-16T07:11:42;18.80;99.90
47252;DHT22;32991;51.374;11.586;2022-09-16T07:14:09;19.00;99.90
47252;DHT22;32991;51.374;11.586;2022-09-16T07:16:36;18.60;99.90
47252;DHT22;32991;51.374;11.586;2022-09-16T07:19:03;18.30;99.90
47252;DHT22;32991;51.374;11.586;2022-09-16T07:21:31;17.90;99.90
47252;DHT22;32991;51.374;11.586;2022-09-16T07:24:00;17.70;99.90
47252;DHT22;32991;51.374;11.586;2022-09-16T07:26:30;17.20;99.90
47252;DHT22;32991;51.374;11.586;2022-09-16T07:29:02;16.50;99.90
47252;DHT22;32991;51.374;11.586;2022-09-16T07:31:32;15.80;99.90
47252;DHT22;32991;51.374;11.586;2022-09-16T07:33:59;15.20;99.90
47252;DHT22;32991;51.374;11.586;2022-09-16T07:36:43;15.10;99.90
47252;DHT22;32991;51.374;11.586;2022-09-16T07:39:12;15.10;99.90
47252;DHT22;32991;51.374;11.586;2022-09-16T07:41:41;14.90;99.90
47252;DHT22;32991;51.374;11.586;2022-09-16T07:44:13;14.70;99.90
47252;DHT22;32991;51.374;11.586;2022-09-16T07:46:41;14.60;99.90
47252;DHT22;32991;51.374;11.586;2022-09-16T07:49:12;15.10;99.90
47252;DHT22;32991;51.374;11.586;2022-09-16T07:51:40;16.10;99.90
47252;DHT22;32991;51.374;11.586;2022-09-16T07:54:10;16.80;99.90
47252;DHT22;32991;51.374;11.586;2022-09-16T07:56:38;17.30;99.90
47252;DHT22;32991;51.374;11.586;2022-09-16T07:59:07;17.40;99.90
47252;DHT22;32991;51.374;11.586;2022-09-16T08:01:34;17.10;99.90
47252;DHT22;32991;51.374;11.586;2022-09-16T08:04:05;16.80;99.90
47252;DHT22;32991;51.374;11.586;2022-09-16T08:06:32;16.30;99.90
47252;DHT22;32991;51.374;11.586;2022-09-16T08:09:00;15.90;99.90
47252;DHT22;32991;51.374;11.586;2022-09-16T08:11:46;15.50;99.90
47252;DHT22;32991;51.374;11.586;2022-09-16T08:14:13;15.00;99.90
47252;DHT22;32991;51.374;11.586;2022-09-16T08:16:40;14.60;99.90
47252;DHT22;32991;51.374;11.586;2022-09-16T08:19:08;14.30;99.90
47252;DHT22;32991;51.374;11.586;2022-09-16T08:21:35;14.20;99.90
47252;DHT22;32991;51.374;11.586;2022-09-16T08:24:01;14.10;99.90
47252;DHT22;32991;51.374;11.586;2022-09-16T08:26:28;14.00;99.90
47252;DHT22;32991;51.374;11.586;2022-09-16T08:28:55;14.10;99.90
47252;DHT22;32991;51.374;11.586;2022-09-16T08:31:35;14.10;99.90
47252;DHT22;32991;51.374;11.586;2022-09-16T08:34:02;14.10;99.90
47252;DHT22;32991;51.374;11.586;2022-09-16T08:36:29;14.20;99.90
47252;DHT22;32991;51.374;11.586;2022-09-16T08:38:56;14.60;99.90
47252;DHT22;32991;51.374;11.586;2022-09-16T08:47:43;17.70;99.90
47252;DHT22;32991;51.374;11.586;2022-09-16T08:49:43;17.00;99.90
47252;DHT22;32991;51.374;11.586;2022-09-16T08:52:35;16.20;99.90
47252;DHT22;32991;51.374;11.586;2022-09-16T08:57:41;15.20;99.90
47252;DHT22;32991;51.374;11.586;2022-09-16T09:00:15;14.90;99.90
47252;DHT22;32991;51.374;11.586;2022-09-16T09:02:51;14.80;99.90
47252;DHT22;32991;51.374;11.586;2022-09-16T09:05:41;15.90;99.90
47252;DHT22;32991;51.374;11.586;2022-09-16T09:08:38;17.10;99.90
47252;DHT22;32991;51.374;11.586;2022-09-16T09:11:29;18.20;99.90
47252;DHT22;32991;51.374;11.586;2022-09-16T09:17:38;17.10;99.90
47252;DHT22;32991;51.374;11.586;2022-09-16T09:37:18;20.30;92.10
47252;DHT22;32991;51.374;11.586;2022-09-16T09:43:12;18.80;93.60
47252;DHT22;32991;51.374;11.586;2022-09-16T09:45:45;17.70;96.20
47252;DHT22;32991;51.374;11.586;2022-09-16T09:48:23;17.20;98.50
47252;DHT22;32991;51.374;11.586;2022-09-16T09:50:52;17.90;97.00
47252;DHT22;32991;51.374;11.586;2022-09-16T09:53:30;17.80;96.70
47252;DHT22;32991;51.374;11.586;2022-09-16T09:56:27;17.50;97.20
47252;DHT22;32991;51.374;11.586;2022-09-16T10:01:32;20.00;94.00
47252;DHT22;32991;51.374;11.586;2022-09-16T10:03:58;21.30;90.30
47252;DHT22;32991;51.374;11.586;2022-09-16T10:06:29;22.10;85.20
47252;DHT22;32991;51.374;11.586;2022-09-16T10:08:58;22.60;83.10
47252;DHT22;32991;51.374;11.586;2022-09-16T10:11:29;23.30;77.00
47252;DHT22;32991;51.374;11.586;2022-09-16T10:13:59;23.60;75.40
47252;DHT22;32991;51.374;11.586;2022-09-16T10:16:29;23.10;75.10
47252;DHT22;32991;51.374;11.586;2022-09-16T10:19:02;22.50;74.80
47252;DHT22;32991;51.374;11.586;2022-09-16T10:21:46;21.80;76.70
47252;DHT22;32991;51.374;11.586;2022-09-16T10:24:35;20.60;78.90
47252;DHT22;32991;51.374;11.586;2022-09-16T10:30:01;18.50;86.70
47252;DHT22;32991;51.374;11.586;2022-09-16T10:32:28;17.80;90.10
47252;DHT22;32991;51.374;11.586;2022-09-16T10:34:55;17.00;92.60
47252;DHT22;32991;51.374;11.586;2022-09-16T10:37:22;16.40;92.70
47252;DHT22;32991;51.374;11.586;2022-09-16T10:39:55;15.90;93.50
47252;DHT22;32991;51.374;11.586;2022-09-16T10:42:24;15.60;94.90
47252;DHT22;32991;51.374;11.586;2022-09-16T10:44:55;15.30;96.30
47252;DHT22;32991;51.374;11.586;2022-09-16T10:47:30;15.20;97.90
47252;DHT22;32991;51.374;11.586;2022-09-16T10:50:02;15.10;99.10
47252;DHT22;32991;51.374;11.586;2022-09-16T10:52:41;15.10;99.60
47252;DHT22;32991;51.374;11.586;2022-09-16T10:57:50;15.10;99.90
47252;DHT22;32991;51.374;11.586;2022-09-16T11:00:21;15.00;99.90
47252;DHT22;32991;51.374;11.586;2022-09-16T11:05:44;14.20;99.90
47252;DHT22;32991;51.374;11.586;2022-09-16T11:11:03;12.90;99.90
47252;DHT22;32991;51.374;11.586;2022-09-16T11:13:45;12.30;99.90
47252;DHT22;32991;51.374;11.586;2022-09-16T11:19:08;11.70;99.90
47252;DHT22;32991;51.374;11.586;2022-09-16T11:22:09;11.70;99.90
47252;DHT22;32991;51.374;11.586;2022-09-16T11:24:43;11.90;99.90
47252;DHT22;32991;51.374;11.586;2022-09-16T11:27:26;12.60;99.90
47252;DHT22;32991;51.374;11.586;2022-09-16T11:31:30;13.40;99.90
47252;DHT22;32991;51.374;11.586;2022-09-16T11:34:31;14.40;99.90
47252;DHT22;32991;51.374;11.586;2022-09-16T11:40:25;18.50;99.90
47252;DHT22;32991;51.374;11.586;2022-09-16T11:43:25;20.20;99.90
47252;DHT22;32991;51.374;11.586;2022-09-16T11:46:14;21.20;97.70
47252;DHT22;32991;51.374;11.586;2022-09-16T11:51:37;22.10;92.60
47252;DHT22;32991;51.374;11.586;2022-09-16T12:17:16;23.70;79.20
47252;DHT22;32991;51.374;11.586;2022-09-16T12:19:59;21.60;78.50
47252;DHT22;32991;51.374;11.586;2022-09-16T12:22:46;20.20;83.70
47252;DHT22;32991;51.374;11.586;2022-09-16T12:25:20;19.00;89.50
47252;DHT22;32991;51.374;11.586;2022-09-16T12:28:01;18.50;91.90
47252;DHT22;32991;51.374;11.586;2022-09-16T12:30:35;18.90;93.10
47252;DHT22;32991;51.374;11.586;2022-09-16T12:33:12;20.10;91.90
47252;DHT22;32991;51.374;11.586;2022-09-16T12:35:53;21.30;89.00
47252;DHT22;32991;51.374;11.586;2022-09-16T12:38:21;22.00;85.70
47252;DHT22;32991;51.374;11.586;2022-09-16T12:47:11;22.90;81.20
47252;DHT22;32991;51.374;11.586;2022-09-16T12:52:55;23.30;80.90
47252;DHT22;32991;51.374;11.586;2022-09-16T12:55:45;23.50;77.20
47252;DHT22;32991;51.374;11.586;2022-09-16T13:01:23;23.90;77.00
47252;DHT22;32991;51.374;11.586;2022-09-16T13:04:02;24.50;72.50
47252;DHT22;32991;51.374;11.586;2022-09-16T13:06:36;24.50;71.00
47252;DHT22;32991;51.374;11.586;2022-09-16T13:09:31;24.10;71.00
47252;DHT22;32991;51.374;11.586;2022-09-16T13:12:04;22.30;73.20
47252;DHT22;32991;51.374;11.586;2022-09-16T13:14:54;20.40;79.20
47252;DHT22;32991;51.374;11.586;2022-09-16T13:17:36;18.80;85.40
47252;DHT22;32991;51.374;11.586;2022-09-16T13:20:25;18.70;87.00
47252;DHT22;32991;51.374;11.586;2022-09-16T13:23:04;19.80;85.70
47252;DHT22;32991;51.374;11.586;2022-09-16T13:25:47;20.90;80.60
47252;DHT22;32991;51.374;11.586;2022-09-16T13:28:40;21.80;76.10
47252;DHT22;32991;51.374;11.586;2022-09-16T13:33:44;22.30;71.40
47252;DHT22;32991;51.374;11.586;2022-09-16T13:38:56;22.20;72.00
47252;DHT22;32991;51.374;11.586;2022-09-16T13:46:52;22.00;70.70
47252;DHT22;32991;51.374;11.586;2022-09-16T13:49:26;22.00;72.40
47252;DHT22;32991;51.374;11.586;2022-09-16T13:51:53;22.30;71.00
47252;DHT22;32991;51.374;11.586;2022-09-16T13:54:30;22.40;71.70
47252;DHT22;32991;51.374;11.586;2022-09-16T14:05:17;23.00;70.10
47252;DHT22;32991;51.374;11.586;2022-09-16T14:11:06;22.80;70.10
47252;DHT22;32991;51.374;11.586;2022-09-16T14:13:47;22.60;68.70
47252;DHT22;32991;51.374;11.586;2022-09-16T14:16:22;22.40;70.80
47252;DHT22;32991;51.374;11.586;2022-09-16T14:19:03;22.40;67.10
47252;DHT22;32991;51.374;11.586;2022-09-16T14:21:31;22.30;59.60
47252;DHT22;32991;51.374;11.586;2022-09-16T14:26:55;21.70;63.40
47252;DHT22;32991;51.374;11.586;2022-09-16T14:29:23;21.40;63.60
47252;DHT22;32991;51.374;11.586;2022-09-16T14:31:54;21.10;64.10
47252;DHT22;32991;51.374;11.586;2022-09-16T14:34:32;21.00;62.70
47252;DHT22;32991;51.374;11.586;2022-09-16T14:37:01;20.90;62.40
47252;DHT22;32991;51.374;11.586;2022-09-16T14:39:28;20.80;63.10
47252;DHT22;32991;51.374;11.586;2022-09-16T14:42:00;20.90;62.30
47252;DHT22;32991;51.374;11.586;2022-09-16T14:50:27;20.60;62.40
47252;DHT22;32991;51.374;11.586;2022-09-16T14:53:00;20.60;62.30
47252;DHT22;32991;51.374;11.586;2022-09-16T14:55:30;20.40;61.30
47252;DHT22;32991;51.374;11.586;2022-09-16T14:57:58;20.40;62.70
47252;DHT22;32991;51.374;11.586;2022-09-16T15:00:33;20.40;62.30
47252;DHT22;32991;51.374;11.586;2022-09-16T15:03:13;20.40;59.70
47252;DHT22;32991;51.374;11.586;2022-09-16T15:05:44;20.20;60.60
47252;DHT22;32991;51.374;11.586;2022-09-16T15:08:31;20.10;62.20
47252;DHT22;32991;51.374;11.586;2022-09-16T15:11:03;20.10;63.00
47252;DHT22;32991;51.374;11.586;2022-09-16T15:13:55;20.10;63.50
47252;DHT22;32991;51.374;11.586;2022-09-16T15:16:22;20.10;63.70
47252;DHT22;32991;51.374;11.586;2022-09-16T15:18:57;20.00;63.80
47252;DHT22;32991;51.374;11.586;2022-09-16T15:21:30;19.80;64.80
47252;DHT22;32991;51.374;11.586;2022-09-16T15:24:00;19.60;65.30
47252;DHT22;32991;51.374;11.586;2022-09-16T15:29:10;19.40;66.60
47252;DHT22;32991;51.374;11.586;2022-09-16T15:31:45;19.40;66.80
47252;DHT22;32991;51.374;11.586;2022-09-16T15:36:53;19.40;67.40
47252;DHT22;32991;51.374;11.586;2022-09-16T15:41:48;19.50;68.10
47252;DHT22;32991;51.374;11.586;2022-09-16T15:44:24;19.50;68.30
47252;DHT22;32991;51.374;11.586;2022-09-16T15:46:52;19.50;67.30
47252;DHT22;32991;51.374;11.586;2022-09-16T15:49:20;19.40;67.80
47252;DHT22;32991;51.374;11.586;2022-09-16T15:51:50;19.20;68.40
47252;DHT22;32991;51.374;11.586;2022-09-16T15:54:23;18.90;68.70
47252;DHT22;32991;51.374;11.586;2022-09-16T15:56:58;18.60;69.90
47252;DHT22;32991;51.374;11.586;2022-09-16T15:59:38;18.10;71.10
47252;DHT22;32991;51.374;11.586;2022-09-16T16:04:47;17.20;72.70
47252;DHT22;32991;51.374;11.586;2022-09-16T16:08:08;16.90;73.80
47252;DHT22;32991;51.374;11.586;2022-09-16T16:10:34;16.60;74.00
47252;DHT22;32991;51.374;11.586;2022-09-16T16:13:02;16.30;74.80
47252;DHT22;32991;51.374;11.586;2022-09-16T16:15:32;16.30;75.30
47252;DHT22;32991;51.374;11.586;2022-09-16T16:18:02;16.10;75.10
47252;DHT22;32991;51.374;11.586;2022-09-16T16:20:30;16.10;76.40
47252;DHT22;32991;51.374;11.586;2022-09-16T16:22:59;16.00;76.60
47252;DHT22;32991;51.374;11.586;2022-09-16T16:25:27;15.90;77.90
47252;DHT22;32991;51.374;11.586;2022-09-16T16:27:54;15.70;78.80
47252;DHT22;32991;51.374;11.586;2022-09-16T16:30:24;15.50;78.10
47252;DHT22;32991;51.374;11.586;2022-09-16T16:32:50;15.30;79.60
47252;DHT22;32991;51.374;11.586;2022-09-16T16:35:17;15.20;80.00
47252;DHT22;32991;51.374;11.586;2022-09-16T16:37:44;15.00;79.90
47252;DHT22;32991;51.374;11.586;2022-09-16T16:40:13;14.90;79.90
47252;DHT22;32991;51.374;11.586;2022-09-16T16:42:40;14.80;79.70
47252;DHT22;32991;51.374;11.586;2022-09-16T16:45:11;14.60;80.70
47252;DHT22;32991;51.374;11.586;2022-09-16T16:47:39;14.50;80.80
47252;DHT22;32991;51.374;11.586;2022-09-16T16:50:05;14.40;82.00
47252;DHT22;32991;51.374;11.586;2022-09-16T16:52:32;14.30;82.00
47252;DHT22;32991;51.374;11.586;2022-09-16T16:54:59;14.10;81.60
47252;DHT22;32991;51.374;11.586;2022-09-16T16:57:26;14.10;82.70
47252;DHT22;32991;51.374;11.586;2022-09-16T16:59:53;14.00;82.50
47252;DHT22;32991;51.374;11.586;2022-09-16T17:02:20;13.90;83.20
47252;DHT22;32991;51.374;11.586;2022-09-16T17:04:47;13.80;83.30
47252;DHT22;32991;51.374;11.586;2022-09-16T17:07:13;13.70;83.90
47252;DHT22;32991;51.374;11.586;2022-09-16T17:09:53;13.60;85.30
47252;DHT22;32991;51.374;11.586;2022-09-16T17:12:19;13.50;86.20
47252;DHT22;32991;51.374;11.586;2022-09-16T17:14:46;13.50;87.40
47252;DHT22;32991;51.374;11.586;2022-09-16T17:17:13;13.40;88.20
47252;DHT22;32991;51.374;11.586;2022-09-16T17:19:40;13.30;89.10
47252;DHT22;32991;51.374;11.586;2022-09-16T17:22:06;13.20;90.00
47252;DHT22;32991;51.374;11.586;2022-09-16T17:24:33;13.10;90.30
47252;DHT22;32991;51.374;11.586;2022-09-16T17:27:00;13.10;90.50
47252;DHT22;32991;51.374;11.586;2022-09-16T17:29:27;13.00;91.00
47252;DHT22;32991;51.374;11.586;2022-09-16T17:31:54;12.90;91.20
47252;DHT22;32991;51.374;11.586;2022-09-16T17:34:26;12.90;91.60
47252;DHT22;32991;51.374;11.586;2022-09-16T17:36:55;12.80;91.80
47252;DHT22;32991;51.374;11.586;2022-09-16T17:39:23;12.70;92.00
47252;DHT22;32991;51.374;11.586;2022-09-16T17:41:50;12.70;92.30
47252;DHT22;32991;51.374;11.586;2022-09-16T17:44:18;12.60;92.50
47252;DHT22;32991;51.374;11.586;2022-09-16T17:46:45;12.50;92.80
47252;DHT22;32991;51.374;11.586;2022-09-16T17:49:15;12.50;93.30
47252;DHT22;32991;51.374;11.586;2022-09-16T17:51:42;12.40;93.80
47252;DHT22;32991;51.374;11.586;2022-09-16T17:54:09;12.30;94.00
47252;DHT22;32991;51.374;11.586;2022-09-16T17:56:36;12.30;94.20
47252;DHT22;32991;51.374;11.586;2022-09-16T17:59:03;12.30;94.70
47252;DHT22;32991;51.374;11.586;2022-09-16T18:01:31;12.20;95.00
47252;DHT22;32991;51.374;11.586;2022-09-16T18:03:57;12.20;95.40
47252;DHT22;32991;51.374;11.586;2022-09-16T18:06:27;12.20;95.70
47252;DHT22;32991;51.374;11.586;2022-09-16T18:08:59;12.10;96.10
47252;DHT22;32991;51.374;11.586;2022-09-16T18:11:27;12.00;96.60
47252;DHT22;32991;51.374;11.586;2022-09-16T18:13:55;12.00;97.10
47252;DHT22;32991;51.374;11.586;2022-09-16T18:16:23;12.00;97.70
47252;DHT22;32991;51.374;11.586;2022-09-16T18:18:52;11.90;98.50
47252;DHT22;32991;51.374;11.586;2022-09-16T18:21:20;11.90;98.90
47252;DHT22;32991;51.374;11.586;2022-09-16T18:23:47;11.80;99.40
47252;DHT22;32991;51.374;11.586;2022-09-16T18:26:16;11.80;99.90
47252;DHT22;32991;51.374;11.586;2022-09-16T18:28:46;11.80;99.90
47252;DHT22;32991;51.374;11.586;2022-09-16T18:31:33;11.80;99.90
47252;DHT22;32991;51.374;11.586;2022-09-16T18:34:00;11.70;99.90
47252;DHT22;32991;51.374;11.586;2022-09-16T18:36:27;11.80;99.90
47252;DHT22;32991;51.374;11.586;2022-09-16T18:38:56;11.80;99.90